createdAt,value
2022-12-02T00:02:28.392Z,100452.78
2022-12-02T00:05:20.624Z,100452.19
2022-12-02T00:07:57.585Z,100447.03
2022-12-02T00:10:36.476Z,100469.41
2022-12-02T00:13:25.356Z,100470.50
2022-12-02T00:16:00.743Z,100473.75
2022-12-02T00:18:31.852Z,100473.38
2022-12-02T00:21:03.036Z,100456.88
2022-12-02T00:23:33.750Z,100466.22
2022-12-02T00:26:04.704Z,100465.53
2022-12-02T00:28:35.705Z,100456.72
2022-12-02T00:31:06.841Z,100454.91
2022-12-02T00:33:37.633Z,100456.78
2022-12-02T00:36:08.884Z,100452.97
2022-12-02T00:38:39.732Z,100453.34
2022-12-02T00:41:11.074Z,100452.03
2022-12-02T00:44:00.340Z,100448.09
2022-12-02T00:46:33.871Z,100443.16
2022-12-02T00:49:13.670Z,100449.13
2022-12-02T00:51:45.713Z,100456.63
2022-12-02T00:54:17.465Z,100433.56
2022-12-02T00:56:48.167Z,100437.56
2022-12-02T00:59:19.289Z,100428.97
2022-12-02T01:01:50.580Z,100431.22
2022-12-02T01:04:21.830Z,100439.13
2022-12-02T01:06:52.553Z,100411.72
2022-12-02T01:09:23.530Z,100409.56
2022-12-02T01:11:54.471Z,100403.94
2022-12-02T01:14:25.187Z,100400.63
2022-12-02T01:16:56.406Z,100392.16
2022-12-02T01:19:27.419Z,100402.72
2022-12-02T01:21:58.411Z,100398.94
2022-12-02T01:24:29.368Z,100385.03
2022-12-02T01:27:00.673Z,100402.47
2022-12-02T01:29:31.608Z,100385.16
2022-12-02T01:32:03.561Z,100389.22
2022-12-02T01:34:35.923Z,100385.56
2022-12-02T01:37:07.021Z,100380.78
2022-12-02T01:39:38.023Z,100384.53
2022-12-02T01:42:09.225Z,100380.94
2022-12-02T01:44:40.258Z,100379.34
2022-12-02T01:47:11.188Z,100365.25
2022-12-02T01:49:42.122Z,100367.25
2022-12-02T01:52:13.141Z,100374.13
2022-12-02T01:54:44.513Z,100369.78
2022-12-02T01:57:17.516Z,100368.06
2022-12-02T01:59:48.554Z,100361.38
2022-12-02T02:02:29.598Z,100371.63
2022-12-02T02:05:10.041Z,100359.59
2022-12-02T02:07:42.270Z,100339.09
2022-12-02T02:10:14.307Z,100350.75
2022-12-02T02:12:47.795Z,100347.19
2022-12-02T02:15:19.432Z,100333.56
2022-12-02T02:17:49.797Z,100336.03
2022-12-02T02:20:23.588Z,100333.63
2022-12-02T02:23:09.357Z,100321.56
2022-12-02T02:25:49.926Z,100325.78
2022-12-02T02:28:28.681Z,100337.50
2022-12-02T02:31:00.293Z,100332.84
2022-12-02T02:33:39.122Z,100328.19
2022-12-02T02:36:09.651Z,100320.78
2022-12-02T02:38:41.759Z,100334.22
2022-12-02T02:41:14.395Z,100321.16
2022-12-02T02:43:45.690Z,100322.78
2022-12-02T02:46:16.699Z,100320.03
2022-12-02T02:48:47.896Z,100333.28
2022-12-02T02:51:18.861Z,100320.84
2022-12-02T02:53:49.867Z,100312.50
2022-12-02T02:56:21.458Z,100305.03
2022-12-02T02:58:53.047Z,100302.53
2022-12-02T03:01:31.939Z,100312.69
2022-12-02T03:04:07.179Z,100298.94
2022-12-02T03:06:38.796Z,100314.47
2022-12-02T03:09:11.768Z,100300.97
2022-12-02T03:11:44.295Z,100306.25
2022-12-02T03:14:16.031Z,100310.50
2022-12-02T03:16:48.290Z,100307.06
2022-12-02T03:19:20.163Z,100312.19
2022-12-02T03:21:51.333Z,100312.09
2022-12-02T03:24:22.291Z,100309.31
2022-12-02T03:26:53.458Z,100306.75
2022-12-02T03:29:24.599Z,100297.66
2022-12-02T03:31:55.952Z,100297.78
2022-12-02T03:34:27.305Z,100293.13
2022-12-02T03:36:58.362Z,100292.56
2022-12-02T03:39:29.383Z,100293.31
2022-12-02T03:42:00.827Z,100297.97
2022-12-02T03:44:32.942Z,100289.03
2022-12-02T03:47:04.256Z,100291.09
2022-12-02T03:49:36.499Z,100275.97
2022-12-02T03:52:08.049Z,100281.53
2022-12-02T03:54:39.510Z,100278.31
2022-12-02T03:57:11.465Z,100287.66
2022-12-02T03:59:41.832Z,100282.19
2022-12-02T04:02:12.891Z,100278.88
2022-12-02T04:04:43.880Z,100275.50
2022-12-02T04:07:14.954Z,100286.72
2022-12-02T04:09:45.894Z,100274.03
2022-12-02T04:12:16.881Z,100269.25
2022-12-02T04:14:48.044Z,100274.06
2022-12-02T04:17:19.148Z,100273.75
2022-12-02T04:19:50.652Z,100277.31
2022-12-02T04:22:21.390Z,100290.06
2022-12-02T04:24:52.706Z,100281.06
2022-12-02T04:27:23.729Z,100289.00
2022-12-02T04:29:54.698Z,100289.00
2022-12-02T04:32:25.533Z,100291.50
2022-12-02T04:34:56.852Z,100295.59
2022-12-02T04:37:27.593Z,100305.72
2022-12-02T04:39:58.408Z,100309.63
2022-12-02T04:42:29.431Z,100320.50
2022-12-02T04:45:00.341Z,100323.78
2022-12-02T04:47:33.328Z,100332.13
2022-12-02T04:50:05.756Z,100333.25
2022-12-02T04:52:36.746Z,100342.00
2022-12-02T04:55:08.181Z,100338.41
2022-12-02T04:57:39.621Z,100332.59
2022-12-02T05:00:11.276Z,100328.16
2022-12-02T05:02:41.636Z,100330.50
2022-12-02T05:05:12.910Z,100333.72
2022-12-02T05:07:44.169Z,100327.09
2022-12-02T05:10:15.004Z,100322.38
2022-12-02T05:12:45.961Z,100307.03
2022-12-02T05:15:17.450Z,100304.97
2022-12-02T05:17:48.497Z,100305.75
2022-12-02T05:20:19.638Z,100302.03
2022-12-02T05:22:50.594Z,100306.34
2022-12-02T05:25:21.691Z,100313.91
2022-12-02T05:27:52.783Z,100320.44
2022-12-02T05:30:24.425Z,100315.31
2022-12-02T05:32:55.322Z,100315.28
2022-12-02T05:35:26.359Z,100329.31
2022-12-02T05:38:03.121Z,100332.97
2022-12-02T05:40:35.722Z,100362.28
2022-12-02T05:43:26.461Z,100345.88
2022-12-02T05:45:59.346Z,100353.16
2022-12-02T05:48:30.925Z,100354.78
2022-12-02T05:51:01.902Z,100356.47
2022-12-02T05:53:32.677Z,100358.53
2022-12-02T05:56:03.751Z,100352.63
2022-12-02T05:58:35.239Z,100360.84
2022-12-02T06:01:27.168Z,100361.00
2022-12-02T06:03:58.174Z,100365.88
2022-12-02T06:06:32.815Z,100375.22
2022-12-02T06:09:03.914Z,100376.97
2022-12-02T06:11:40.330Z,100384.72
2022-12-02T06:14:19.149Z,100384.72
2022-12-02T06:17:02.928Z,100390.00
2022-12-02T06:19:46.844Z,100390.59
2022-12-02T06:22:36.802Z,100385.22
2022-12-02T06:25:26.101Z,100392.72
2022-12-02T06:28:16.797Z,100380.94
2022-12-02T06:30:47.641Z,100379.38
2022-12-02T06:33:38.107Z,100383.91
2022-12-02T06:36:17.998Z,100382.63
2022-12-02T06:38:55.889Z,100380.69
2022-12-02T06:41:29.351Z,100392.72
2022-12-02T06:44:20.160Z,100384.38
2022-12-02T06:46:51.427Z,100399.44
2022-12-02T06:49:27.768Z,100392.19
2022-12-02T06:52:01.136Z,100409.59
2022-12-02T06:54:32.999Z,100390.31
2022-12-02T06:57:04.941Z,100406.28
2022-12-02T06:59:36.611Z,100397.50
2022-12-02T07:02:33.525Z,100388.81
2022-12-02T07:05:04.344Z,100391.31
2022-12-02T07:07:35.923Z,100393.00
2022-12-02T07:10:10.181Z,100408.31
2022-12-02T07:12:47.083Z,100407.25
2022-12-02T07:15:35.260Z,100399.91
2022-12-02T07:18:19.064Z,100401.34
2022-12-02T07:20:51.319Z,100406.28
2022-12-02T07:23:24.282Z,100415.03
2022-12-02T07:25:57.297Z,100418.56
2022-12-02T07:28:28.236Z,100409.94
2022-12-02T07:30:59.242Z,100410.69
2022-12-02T07:33:31.236Z,100404.75
2022-12-02T07:36:02.172Z,100414.53
2022-12-02T07:39:04.309Z,100417.31
2022-12-02T07:41:24.597Z,100419.47
2022-12-02T07:43:56.473Z,100424.38
2022-12-02T07:46:26.842Z,100418.44
2022-12-02T07:48:57.782Z,100411.41
2022-12-02T07:51:28.712Z,100441.75
2022-12-02T07:53:59.760Z,100439.88
2022-12-02T07:56:30.752Z,100445.56
2022-12-02T07:59:11.789Z,100456.97
2022-12-02T08:01:44.295Z,100458.88
2022-12-02T08:04:15.154Z,100455.38
2022-12-02T08:06:46.205Z,100469.19
2022-12-02T08:09:17.235Z,100467.03
2022-12-02T08:11:48.150Z,100473.81
2022-12-02T08:14:19.221Z,100473.81
2022-12-02T08:16:50.275Z,100476.25
2022-12-02T08:19:21.081Z,100484.66
2022-12-02T08:21:51.965Z,100486.00
2022-12-02T08:24:22.980Z,100482.75
2022-12-02T08:26:53.745Z,100487.09
2022-12-02T08:29:24.655Z,100486.28
2022-12-02T08:31:55.643Z,100493.06
2022-12-02T08:34:26.881Z,100486.81
2022-12-02T08:36:58.105Z,100499.81
2022-12-02T08:39:29.079Z,100500.84
2022-12-02T08:42:00.026Z,100503.03
2022-12-02T08:44:30.813Z,100506.00
2022-12-02T08:47:02.100Z,100516.84
2022-12-02T08:49:33.044Z,100513.84
2022-12-02T08:52:04.061Z,100512.22
2022-12-02T08:54:34.969Z,100511.41
2022-12-02T08:57:05.727Z,100518.97
2022-12-02T08:59:36.592Z,100523.59
2022-12-02T09:02:08.484Z,100517.09
2022-12-02T09:04:39.414Z,100518.16
2022-12-02T09:07:10.443Z,100518.72
2022-12-02T09:09:41.657Z,100525.72
2022-12-02T09:12:12.596Z,100520.03
2022-12-02T09:14:43.669Z,100520.84
2022-12-02T09:17:14.463Z,100521.09
2022-12-02T09:19:45.375Z,100516.72
2022-12-02T09:22:16.330Z,100513.25
2022-12-02T09:24:47.141Z,100512.97
2022-12-02T09:27:18.079Z,100527.84
2022-12-02T09:29:49.056Z,100524.06
2022-12-02T09:32:19.971Z,100524.59
2022-12-02T09:34:51.077Z,100518.34
2022-12-02T09:37:22.245Z,100521.31
2022-12-02T09:39:53.298Z,100524.28
2022-12-02T09:42:24.332Z,100523.47
2022-12-02T09:44:59.100Z,100514.53
2022-12-02T09:47:31.171Z,100518.31
2022-12-02T09:50:02.159Z,100519.38
2022-12-02T09:52:33.495Z,100518.25
2022-12-02T09:55:05.451Z,100517.69
2022-12-02T09:57:40.440Z,100510.66
2022-12-02T10:00:20.758Z,100525.00
2022-12-02T10:02:54.106Z,100524.34
2022-12-02T10:05:31.277Z,100534.63
2022-12-02T10:08:02.899Z,100527.59
2022-12-02T10:10:41.223Z,100535.63
2022-12-02T10:13:17.634Z,100538.34
2022-12-02T10:15:48.777Z,100533.94
2022-12-02T10:18:26.359Z,100539.38
2022-12-02T10:20:57.345Z,100540.13
2022-12-02T10:23:30.152Z,100541.47
2022-12-02T10:26:15.269Z,100555.25
2022-12-02T10:28:46.201Z,100559.34
2022-12-02T10:31:20.252Z,100558.78
2022-12-02T10:33:56.912Z,100562.50
2022-12-02T10:36:44.991Z,100570.34
2022-12-02T10:39:32.567Z,100570.34
2022-12-02T10:42:06.894Z,100585.72
2022-12-02T10:44:40.656Z,100577.59
2022-12-02T10:47:14.459Z,100574.69
2022-12-02T10:50:03.364Z,100581.16
2022-12-02T10:52:36.739Z,100588.97
2022-12-02T10:55:09.139Z,100587.00
2022-12-02T10:57:40.281Z,100579.03
2022-12-02T11:00:21.786Z,100594.31
2022-12-02T11:02:59.456Z,100593.28
2022-12-02T11:05:35.512Z,100589.84
2022-12-02T11:08:06.618Z,100593.91
2022-12-02T11:10:44.231Z,100592.56
2022-12-02T11:13:14.937Z,100590.63
2022-12-02T11:15:54.834Z,100594.50
2022-12-02T11:18:28.862Z,100608.66
2022-12-02T11:21:15.164Z,100598.06
2022-12-02T11:23:49.101Z,100589.94
2022-12-02T11:26:20.041Z,100592.00
2022-12-02T11:29:08.013Z,100593.34
2022-12-02T11:31:39.115Z,100587.06
2022-12-02T11:34:28.249Z,100581.63
2022-12-02T11:37:44.070Z,100586.28
2022-12-02T11:40:17.528Z,100586.81
2022-12-02T11:42:48.787Z,100576.44
2022-12-02T11:45:19.440Z,100582.75
2022-12-02T11:47:56.290Z,100581.78
2022-12-02T11:50:32.295Z,100574.41
2022-12-02T11:53:17.212Z,100576.81
2022-12-02T11:55:53.685Z,100581.13
2022-12-02T11:58:34.715Z,100589.47
2022-12-02T12:01:17.317Z,100588.44
2022-12-02T12:03:50.571Z,100588.00
2022-12-02T12:06:22.672Z,100578.97
2022-12-02T12:08:58.381Z,100584.88
2022-12-02T12:11:30.490Z,100591.16
2022-12-02T12:14:13.743Z,100580.41
2022-12-02T12:16:50.897Z,100569.44
2022-12-02T12:19:21.891Z,100579.75
2022-12-02T12:21:58.068Z,100587.13
2022-12-02T12:24:30.996Z,100582.28
2022-12-02T12:27:07.718Z,100582.44
2022-12-02T12:29:41.108Z,100586.06
2022-12-02T12:32:12.801Z,100580.25
2022-12-02T12:34:43.402Z,100582.44
2022-12-02T12:37:14.250Z,100575.88
2022-12-02T12:39:45.457Z,100585.06
2022-12-02T12:42:16.657Z,100582.72
2022-12-02T12:44:47.669Z,100579.47
2022-12-02T12:47:22.462Z,100583.94
2022-12-02T12:49:53.934Z,100581.88
2022-12-02T12:52:24.958Z,100583.81
2022-12-02T12:54:55.737Z,100577.72
2022-12-02T12:57:26.932Z,100589.63
2022-12-02T12:59:57.765Z,100583.50
2022-12-02T13:02:28.583Z,100593.34
2022-12-02T13:05:00.064Z,100583.19
2022-12-02T13:07:30.796Z,100583.09
2022-12-02T13:10:04.705Z,100583.50
2022-12-02T13:12:35.645Z,100576.47
2022-12-02T13:15:06.959Z,100579.91
2022-12-02T13:17:38.197Z,100576.56
2022-12-02T13:20:09.908Z,100588.19
2022-12-02T13:22:40.656Z,100591.00
2022-12-02T13:25:12.471Z,100584.13
2022-12-02T13:27:42.957Z,100589.28
2022-12-02T13:30:16.689Z,100586.97
2022-12-02T13:32:49.985Z,100579.91
2022-12-02T13:35:22.863Z,100584.25
2022-12-02T13:37:54.057Z,100576.38
2022-12-02T13:40:25.445Z,100582.75
2022-12-02T13:42:56.947Z,100571.31
2022-12-02T13:45:29.521Z,100580.38
2022-12-02T13:48:04.208Z,100583.88
2022-12-02T13:50:37.979Z,100595.59
2022-12-02T13:53:09.248Z,100597.47
2022-12-02T13:55:40.207Z,100599.09
2022-12-02T13:58:11.033Z,100586.69
2022-12-02T14:00:42.099Z,100588.81
2022-12-02T14:03:13.243Z,100584.53
2022-12-02T14:05:44.959Z,100586.44
2022-12-02T14:08:15.866Z,100588.53
2022-12-02T14:10:46.865Z,100573.16
2022-12-02T14:13:21.104Z,100579.56
2022-12-02T14:15:52.603Z,100580.97
2022-12-02T14:18:26.954Z,100579.59
2022-12-02T14:20:57.993Z,100573.63
2022-12-02T14:23:28.924Z,100577.97
2022-12-02T14:25:59.758Z,100585.78
2022-12-02T14:28:30.600Z,100585.97
2022-12-02T14:31:02.686Z,100584.56
2022-12-02T14:34:09.158Z,100595.69
2022-12-02T14:36:24.477Z,100593.22
2022-12-02T14:38:55.350Z,100593.47
2022-12-02T14:41:26.604Z,100595.44
2022-12-02T14:43:57.403Z,100596.69
2022-12-02T14:46:31.703Z,100595.63
2022-12-02T14:49:31.111Z,100600.44
2022-12-02T14:51:53.944Z,100604.16
2022-12-02T14:54:24.889Z,100606.28
2022-12-02T14:56:55.797Z,100612.31
2022-12-02T14:59:26.718Z,100613.88
2022-12-02T15:01:57.818Z,100609.72
2022-12-02T15:04:30.068Z,100619.50
2022-12-02T15:07:01.516Z,100616.31
2022-12-02T15:09:32.872Z,100613.47
2022-12-02T15:12:04.314Z,100618.03
2022-12-02T15:14:35.409Z,100619.41
2022-12-02T15:17:06.326Z,100610.94
2022-12-02T15:19:37.332Z,100613.31
2022-12-02T15:22:08.263Z,100607.66
2022-12-02T15:24:39.173Z,100614.94
2022-12-02T15:27:10.178Z,100604.56
2022-12-02T15:29:41.523Z,100610.88
2022-12-02T15:32:18.767Z,100616.34
2022-12-02T15:34:50.419Z,100622.69
2022-12-02T15:37:21.572Z,100622.78
2022-12-02T15:39:52.627Z,100619.19
2022-12-02T15:42:23.478Z,100627.50
2022-12-02T15:44:54.753Z,100626.34
2022-12-02T15:47:25.958Z,100633.44
2022-12-02T15:49:56.974Z,100633.94
2022-12-02T15:52:27.978Z,100636.22
2022-12-02T15:54:58.905Z,100635.56
2022-12-02T15:57:29.875Z,100633.44
2022-12-02T16:00:00.847Z,100633.81
2022-12-02T16:02:32.402Z,100642.44
2022-12-02T16:05:03.393Z,100648.44
2022-12-02T16:07:34.988Z,100651.50
2022-12-02T16:10:06.720Z,100642.34
2022-12-02T16:12:37.730Z,100648.69
2022-12-02T16:15:09.001Z,100656.41
2022-12-02T16:17:40.007Z,100655.13
2022-12-02T16:20:13.491Z,100655.25
2022-12-02T16:22:44.511Z,100663.84
2022-12-02T16:25:15.425Z,100656.00
2022-12-02T16:27:46.391Z,100666.53
2022-12-02T16:30:17.456Z,100671.78
2022-12-02T16:32:48.535Z,100660.81
2022-12-02T16:35:19.387Z,100663.63
2022-12-02T16:37:50.602Z,100668.91
2022-12-02T16:40:21.498Z,100676.41
2022-12-02T16:42:52.464Z,100684.94
2022-12-02T16:45:23.364Z,100687.97
2022-12-02T16:47:54.520Z,100685.03
2022-12-02T16:50:25.538Z,100688.06
2022-12-02T16:52:56.778Z,100693.94
2022-12-02T16:55:27.502Z,100697.22
2022-12-02T16:57:59.275Z,100696.97
2022-12-02T17:00:30.281Z,100705.59
2022-12-02T17:03:01.440Z,100709.19
2022-12-02T17:05:32.426Z,100715.59
2022-12-02T17:08:04.039Z,100708.69
2022-12-02T17:10:35.464Z,100709.69
2022-12-02T17:13:06.361Z,100717.38
2022-12-02T17:15:37.139Z,100717.69
2022-12-02T17:18:08.591Z,100720.69
2022-12-02T17:20:39.441Z,100734.25
2022-12-02T17:23:10.430Z,100731.22
2022-12-02T17:25:41.251Z,100735.00
2022-12-02T17:28:12.388Z,100730.25
2022-12-02T17:30:43.286Z,100740.22
2022-12-02T17:33:14.165Z,100731.47
2022-12-02T17:35:45.144Z,100735.66
2022-12-02T17:38:16.084Z,100734.56
2022-12-02T17:40:47.124Z,100740.69
2022-12-02T17:43:18.132Z,100735.06
2022-12-02T17:45:49.096Z,100744.31
2022-12-02T17:48:20.149Z,100743.91
2022-12-02T17:50:51.002Z,100745.09
2022-12-02T17:53:21.756Z,100747.63
2022-12-02T17:55:52.723Z,100748.91
2022-12-02T17:58:23.769Z,100749.66
2022-12-02T18:00:54.831Z,100762.91
2022-12-02T18:03:25.847Z,100755.53
2022-12-02T18:05:57.036Z,100764.50
2022-12-02T18:08:28.684Z,100776.53
2022-12-02T18:10:59.675Z,100771.47
2022-12-02T18:13:30.637Z,100778.81
2022-12-02T18:16:01.631Z,100786.69
2022-12-02T18:18:32.803Z,100789.09
2022-12-02T18:21:04.271Z,100792.59
2022-12-02T18:23:34.995Z,100785.97
2022-12-02T18:26:06.059Z,100795.56
2022-12-02T18:28:37.048Z,100794.50
2022-12-02T18:31:08.782Z,100798.66
2022-12-02T18:33:39.708Z,100814.50
2022-12-02T18:36:10.867Z,100804.06
2022-12-02T18:38:41.854Z,100804.66
2022-12-02T18:41:12.972Z,100805.22
2022-12-02T18:43:44.273Z,100812.69
2022-12-02T18:46:15.454Z,100818.53
2022-12-02T18:48:46.673Z,100811.16
2022-12-02T18:51:17.933Z,100821.84
2022-12-02T18:53:49.360Z,100819.13
2022-12-02T18:56:24.112Z,100829.13
2022-12-02T18:58:55.648Z,100834.38
2022-12-02T19:01:30.817Z,100825.94
2022-12-02T19:04:04.906Z,100827.78
2022-12-02T19:06:36.082Z,100831.47
2022-12-02T19:09:08.085Z,100820.91
2022-12-02T19:11:39.114Z,100831.28
2022-12-02T19:14:10.204Z,100830.75
2022-12-02T19:16:41.176Z,100831.28
2022-12-02T19:19:12.077Z,100843.69
2022-12-02T19:21:42.844Z,100838.72
2022-12-02T19:24:13.654Z,100847.78
2022-12-02T19:26:44.850Z,100837.53
2022-12-02T19:29:15.703Z,100845.69
2022-12-02T19:31:46.631Z,100853.47
2022-12-02T19:34:17.667Z,100851.78
2022-12-02T19:36:49.055Z,100854.06
2022-12-02T19:39:19.915Z,100847.56
2022-12-02T19:41:51.011Z,100856.53
2022-12-02T19:44:21.856Z,100848.16
2022-12-02T19:46:52.855Z,100865.53
2022-12-02T19:49:23.960Z,100871.75
2022-12-02T19:51:54.869Z,100880.44
2022-12-02T19:54:25.859Z,100882.66
2022-12-02T19:56:56.803Z,100878.56
2022-12-02T19:59:27.592Z,100883.16
2022-12-02T20:01:58.849Z,100880.72
2022-12-02T20:04:44.696Z,100887.28
2022-12-02T20:07:15.664Z,100883.13
2022-12-02T20:09:46.924Z,100885.53
2022-12-02T20:12:18.393Z,100884.53
2022-12-02T20:14:49.113Z,100888.25
2022-12-02T20:17:19.865Z,100886.06
2022-12-02T20:19:50.723Z,100890.03
2022-12-02T20:22:21.700Z,100876.81
2022-12-02T20:24:52.972Z,100901.34
2022-12-02T20:27:24.047Z,100890.91
2022-12-02T20:29:54.932Z,100891.91
2022-12-02T20:32:25.876Z,100893.06
2022-12-02T20:34:56.647Z,100890.44
2022-12-02T20:37:27.576Z,100891.41
2022-12-02T20:39:58.645Z,100889.59
2022-12-02T20:42:29.387Z,100894.06
2022-12-02T20:45:01.284Z,100884.31
2022-12-02T20:47:33.136Z,100883.97
2022-12-02T20:50:04.289Z,100884.88
2022-12-02T20:52:35.402Z,100889.69
2022-12-02T20:55:07.965Z,100883.41
2022-12-02T20:57:38.907Z,100890.13
2022-12-02T21:00:10.871Z,100887.41
2022-12-02T21:02:42.191Z,100888.72
2022-12-02T21:05:13.453Z,100895.09
2022-12-02T21:07:44.640Z,100901.16
2022-12-02T21:10:15.937Z,100881.16
2022-12-02T21:12:47.212Z,100886.03
2022-12-02T21:15:18.700Z,100875.69
2022-12-02T21:17:49.608Z,100883.84
2022-12-02T21:20:21.681Z,100882.94
2022-12-02T21:22:52.438Z,100891.38
2022-12-02T21:25:23.396Z,100882.66
2022-12-02T21:27:54.293Z,100897.88
2022-12-02T21:30:25.406Z,100886.25
2022-12-02T21:32:56.530Z,100890.28
2022-12-02T21:35:28.365Z,100899.34
2022-12-02T21:38:00.324Z,100901.78
2022-12-02T21:40:30.466Z,100911.56
2022-12-02T21:43:01.342Z,100904.16
2022-12-02T21:45:32.430Z,100907.69
2022-12-02T21:48:03.543Z,100905.88
2022-12-02T21:50:34.440Z,100913.72
2022-12-02T21:53:05.830Z,100911.72
2022-12-02T21:55:36.581Z,100907.53
2022-12-02T21:58:07.531Z,100913.38
2022-12-02T22:00:38.526Z,100909.91
2022-12-02T22:03:14.587Z,100904.94
2022-12-02T22:05:45.876Z,100912.53
2022-12-02T22:08:16.703Z,100915.56
2022-12-02T22:10:48.047Z,100912.81
2022-12-02T22:13:19.003Z,100902.69
2022-12-02T22:15:49.941Z,100907.72
2022-12-02T22:18:20.896Z,100916.31
2022-12-02T22:20:51.817Z,100897.84
2022-12-02T22:23:22.783Z,100909.22
2022-12-02T22:25:54.462Z,100905.41
2022-12-02T22:28:25.571Z,100901.94
2022-12-02T22:30:58.195Z,100892.38
2022-12-02T22:33:33.458Z,100894.16
2022-12-02T22:36:04.755Z,100885.59
2022-12-02T22:38:36.051Z,100896.53
2022-12-02T22:41:07.719Z,100878.41
2022-12-02T22:43:39.004Z,100884.41
2022-12-02T22:46:10.017Z,100887.88
2022-12-02T22:48:40.782Z,100889.63
2022-12-02T22:51:11.701Z,100881.50
2022-12-02T22:53:43.341Z,100879.69
2022-12-02T22:56:14.222Z,100888.13
2022-12-02T22:58:45.052Z,100886.47
2022-12-02T23:01:16.060Z,100882.34
2022-12-02T23:03:47.031Z,100884.28
2022-12-02T23:06:18.072Z,100880.25
2022-12-02T23:08:49.094Z,100874.53
2022-12-02T23:11:20.547Z,100888.03
2022-12-02T23:13:51.775Z,100886.72
2022-12-02T23:16:23.075Z,100887.72
2022-12-02T23:18:55.225Z,100896.28
2022-12-02T23:21:26.438Z,100885.28
2022-12-02T23:23:57.641Z,100896.13
2022-12-02T23:26:28.840Z,100891.03
2022-12-02T23:28:59.630Z,100884.88
2022-12-02T23:31:30.502Z,100888.06
2022-12-02T23:34:01.273Z,100882.56
2022-12-02T23:36:35.066Z,100883.94
2022-12-02T23:39:06.736Z,100876.25
2022-12-02T23:41:37.717Z,100864.56
2022-12-02T23:44:08.512Z,100871.19
2022-12-02T23:46:39.311Z,100875.22
2022-12-02T23:49:10.148Z,100871.88
2022-12-02T23:51:40.909Z,100874.44
2022-12-02T23:54:11.963Z,100870.00
2022-12-02T23:56:42.700Z,100879.38
2022-12-02T23:59:13.861Z,100874.03
